| Date | Time | Temp. (oF) | Dew Point (oF) | Rel. Hum. (%) | Press. (in.) | Wind Dir. | Wind Speed (mph) | Hourly Rainfall (in.) |
|
|---|---|---|---|---|---|---|---|---|---|
| 1 | 11/18 | 00:00 | 34 | 27 | 77 | 30.04 | NW | 4 | 0.00 |
| 2 | 11/17 | 23:00 | 34 | 27 | 76 | 30.04 | WNW | 3 | 0.00 |
| 3 | 11/17 | 22:00 | 36 | 28 | 73 | 30.04 | WNW | 4 | 0.00 |
| 4 | 11/17 | 21:00 | 38 | 29 | 70 | 30.04 | NNW | 4 | 0.00 |
| 5 | 11/17 | 20:00 | 39 | 29 | 68 | 30.03 | NW | 4 | 0.00 |
| 6 | 11/17 | 19:00 | 40 | 29 | 66 | 30.02 | NNW | 5 | 0.00 |
| 7 | 11/17 | 18:00 | 40 | 28 | 64 | 30.01 | W | 2 | 0.00 |
| 8 | 11/17 | 17:00 | 42 | 29 | 60 | 29.99 | NW | 3 | 0.00 |
| 9 | 11/17 | 16:00 | 43 | 27 | 55 | 29.99 | NW | 5 | 0.00 |
| 10 | 11/17 | 15:00 | 44 | 28 | 54 | 29.98 | WNW | 3 | 0.00 |
| 11 | 11/17 | 14:00 | 45 | 28 | 52 | 29.98 | WNW | 5 | 0.00 |
| 12 | 11/17 | 13:00 | 45 | 27 | 51 | 29.99 | WNW | 7 | 0.00 |
| 13 | 11/17 | 12:00 | 45 | 26 | 49 | 30.02 | WSW | 5 | 0.00 |
| 14 | 11/17 | 11:00 | 44 | 27 | 52 | 30.04 | WNW | 3 | 0.00 |
| 15 | 11/17 | 10:00 | 43 | 28 | 56 | 30.05 | WNW | 4 | 0.00 |
| 16 | 11/17 | 09:00 | 41 | 29 | 64 | 30.06 | WSW | 7 | 0.00 |
| 17 | 11/17 | 08:00 | 37 | 29 | 75 | 30.06 | SSW | 2 | 0.00 |
| 18 | 11/17 | 07:00 | 35 | 27 | 75 | 30.05 | WSW | 1 | 0.00 |
| 19 | 11/17 | 06:00 | 35 | 27 | 73 | 30.04 | SW | 2 | 0.00 |
| 20 | 11/17 | 05:00 | 35 | 27 | 73 | 30.04 | SSW | 4 | 0.00 |
| 21 | 11/17 | 04:00 | 35 | 26 | 72 | 30.03 | SSW | 2 | 0.00 |
| 22 | 11/17 | 03:00 | 36 | 26 | 68 | 30.02 | SSW | 3 | 0.00 |
| 23 | 11/17 | 02:00 | 38 | 27 | 65 | 30.01 | WSW | 2 | 0.00 |
| 24 | 11/17 | 01:00 | 38 | 27 | 65 | 30.00 | SW | 5 | 0.00 |